createdAt,value
2023-04-24T00:02:49.575Z,7.93
2023-04-24T00:07:53.677Z,7.28
2023-04-24T00:12:55.195Z,7.22
2023-04-24T00:17:56.715Z,6.80
2023-04-24T00:22:58.268Z,7.70
2023-04-24T00:27:59.721Z,6.22
2023-04-24T00:33:01.232Z,4.00
2023-04-24T00:38:02.758Z,4.00
2023-04-24T00:43:04.550Z,4.07
2023-04-24T00:48:06.546Z,3.20
2023-04-24T00:53:08.050Z,2.70
2023-04-24T00:58:09.651Z,2.60
2023-04-24T01:03:12.110Z,2.88
2023-04-24T01:08:15.036Z,2.45
2023-04-24T01:13:16.569Z,2.53
2023-04-24T01:18:18.068Z,2.40
2023-04-24T01:23:19.995Z,2.50
2023-04-24T01:28:22.185Z,1.80
2023-04-24T01:33:24.114Z,1.80
2023-04-24T01:38:25.924Z,2.20
2023-04-24T01:43:27.662Z,2.80
2023-04-24T01:48:29.321Z,3.85
2023-04-24T01:53:30.860Z,4.00
2023-04-24T01:58:32.813Z,2.75
2023-04-24T02:03:34.538Z,2.70
2023-04-24T02:08:36.413Z,2.72
2023-04-24T02:13:37.996Z,2.42
2023-04-24T02:18:39.565Z,2.10
2023-04-24T02:23:41.129Z,2.35
2023-04-24T02:28:42.592Z,3.58
2023-04-24T02:33:44.104Z,4.32
2023-04-24T02:38:45.666Z,5.00
2023-04-24T02:43:47.208Z,6.60
2023-04-24T02:48:48.677Z,6.82
2023-04-24T02:53:50.244Z,6.80
2023-04-24T02:58:51.866Z,6.50
2023-04-24T03:03:53.620Z,6.32
2023-04-24T03:08:55.590Z,6.35
2023-04-24T03:13:57.159Z,5.88
2023-04-24T03:18:58.623Z,6.80
2023-04-24T03:24:00.187Z,6.28
2023-04-24T03:29:02.744Z,5.43
2023-04-24T03:34:04.348Z,5.57
2023-04-24T03:39:06.373Z,5.90
2023-04-24T03:44:07.921Z,6.10
2023-04-24T03:49:09.442Z,6.18
2023-04-24T03:54:11.340Z,6.80
2023-04-24T03:59:12.889Z,6.82
2023-04-24T04:04:14.420Z,6.90
2023-04-24T04:09:16.404Z,7.00
2023-04-24T04:14:17.940Z,7.13
2023-04-24T04:19:19.418Z,7.45
2023-04-24T04:24:25.057Z,6.50
2023-04-24T04:29:26.982Z,7.13
2023-04-24T04:34:28.523Z,7.55
2023-04-24T04:39:31.511Z,7.60
2023-04-24T04:44:33.104Z,7.47
2023-04-24T04:49:35.610Z,7.03
2023-04-24T04:54:37.137Z,6.75
2023-04-24T04:59:38.667Z,6.13
2023-04-24T05:04:41.053Z,5.18
2023-04-24T05:09:42.907Z,5.63
2023-04-24T05:14:44.521Z,5.10
2023-04-24T05:19:46.369Z,4.68
2023-04-24T05:24:48.984Z,2.90
2023-04-24T05:29:50.703Z,2.50
2023-04-24T05:34:52.258Z,2.72
2023-04-24T05:39:53.773Z,4.72
2023-04-24T05:44:57.861Z,9.57
2023-04-24T05:49:59.506Z,16.63
2023-04-24T05:55:01.016Z,21.10
2023-04-24T06:00:02.633Z,17.85
2023-04-24T06:05:05.811Z,14.80
2023-04-24T06:10:08.003Z,11.77
2023-04-24T06:15:09.939Z,11.20
2023-04-24T06:20:12.439Z,11.63
2023-04-24T06:25:14.076Z,12.82
2023-04-24T06:30:15.726Z,12.70
2023-04-24T06:35:17.426Z,12.40
2023-04-24T06:40:19.760Z,11.32
2023-04-24T06:45:21.234Z,10.05
2023-04-24T06:50:22.861Z,10.07
2023-04-24T06:55:24.388Z,9.45
2023-04-24T07:00:26.235Z,8.13
2023-04-24T07:05:27.840Z,8.68
2023-04-24T07:10:29.573Z,8.18
2023-04-24T07:15:31.448Z,8.13
2023-04-24T07:20:34.159Z,7.68
2023-04-24T07:25:35.763Z,6.85
2023-04-24T07:30:37.270Z,6.57
2023-04-24T07:35:39.061Z,7.65
2023-04-24T07:40:40.588Z,8.25
2023-04-24T07:45:42.134Z,6.47
2023-04-24T07:50:43.643Z,6.22
2023-04-24T07:55:45.108Z,6.60
2023-04-24T08:00:48.270Z,5.30
2023-04-24T08:05:52.011Z,6.18
2023-04-24T08:10:53.520Z,4.72
2023-04-24T08:15:55.094Z,5.70
2023-04-24T08:20:57.154Z,5.55
2023-04-24T08:25:58.802Z,5.60
2023-04-24T08:31:00.411Z,5.78
2023-04-24T08:36:03.802Z,6.53
2023-04-24T08:41:06.019Z,4.97
2023-04-24T08:46:11.568Z,4.70
2023-04-24T08:51:13.745Z,4.43
2023-04-24T08:56:15.338Z,4.60
2023-04-24T09:01:17.294Z,3.97
2023-04-24T09:06:19.972Z,3.42
2023-04-24T09:11:21.632Z,3.25
2023-04-24T09:16:25.287Z,3.10
2023-04-24T09:21:33.433Z,2.55
2023-04-24T09:26:37.958Z,2.88
2023-04-24T09:31:39.481Z,2.88
2023-04-24T09:36:43.808Z,3.10
2023-04-24T09:41:47.917Z,2.83
2023-04-24T09:47:01.577Z,2.88
2023-04-24T09:52:10.980Z,2.55
2023-04-24T09:57:12.480Z,3.10
2023-04-24T10:02:21.055Z,2.47
2023-04-24T10:07:22.615Z,2.88
2023-04-24T10:12:24.447Z,1.98
2023-04-24T10:17:27.003Z,2.42
2023-04-24T10:22:30.846Z,1.48
2023-04-24T10:27:32.975Z,1.40
2023-04-24T10:32:34.508Z,1.50
2023-04-24T10:37:41.954Z,2.13
2023-04-24T10:42:43.741Z,1.50
2023-04-24T10:47:53.271Z,1.30
2023-04-24T10:53:05.550Z,1.38
2023-04-24T10:58:07.074Z,1.50
2023-04-24T11:03:34.277Z,1.55
2023-04-24T11:08:46.664Z,1.73
2023-04-24T11:13:57.508Z,1.50
2023-04-24T11:19:20.359Z,1.88
2023-04-24T11:24:31.972Z,1.52
2023-04-24T11:29:44.363Z,1.40
2023-04-24T11:34:54.687Z,1.00
2023-04-24T11:39:58.306Z,1.35
2023-04-24T11:45:01.416Z,1.08
2023-04-24T11:50:04.896Z,0.70
2023-04-24T11:55:09.956Z,1.02
2023-04-24T12:00:18.296Z,0.93
2023-04-24T12:05:31.865Z,1.17
2023-04-24T12:10:34.399Z,1.58
2023-04-24T12:15:35.991Z,1.50
2023-04-24T12:20:37.470Z,1.98
2023-04-24T12:25:39.796Z,2.67
2023-04-24T12:30:49.304Z,1.55
2023-04-24T12:35:56.486Z,1.73
2023-04-24T12:41:06.258Z,1.70
2023-04-24T12:46:07.814Z,1.65
2023-04-24T12:51:09.297Z,2.10
2023-04-24T12:56:10.881Z,2.70
2023-04-24T13:01:12.496Z,2.25
2023-04-24T13:06:14.045Z,2.00
2023-04-24T13:11:15.788Z,3.00
2023-04-24T13:16:17.353Z,3.58
2023-04-24T13:21:18.938Z,3.10
2023-04-24T13:26:20.859Z,3.03
2023-04-24T13:31:22.463Z,3.33
2023-04-24T13:36:24.103Z,3.78
2023-04-24T13:41:25.770Z,3.65
2023-04-24T13:46:27.382Z,3.95
2023-04-24T13:51:29.120Z,3.65
2023-04-24T13:56:30.587Z,3.00
2023-04-24T14:01:32.337Z,3.45
2023-04-24T14:06:34.318Z,2.50
2023-04-24T14:11:36.239Z,3.20
2023-04-24T14:16:38.027Z,3.63
2023-04-24T14:21:39.683Z,3.97
2023-04-24T14:26:41.243Z,4.22
2023-04-24T14:31:43.372Z,3.80
2023-04-24T14:36:44.933Z,3.75
2023-04-24T14:41:46.665Z,4.63
2023-04-24T14:46:49.770Z,3.17
2023-04-24T14:51:51.347Z,3.28
2023-04-24T14:56:52.869Z,4.10
2023-04-24T15:02:14.608Z,3.45
2023-04-24T15:07:16.935Z,3.40
2023-04-24T15:12:18.452Z,3.42
2023-04-24T15:17:19.939Z,3.15
2023-04-24T15:22:21.541Z,3.50
2023-04-24T15:27:23.077Z,3.08
2023-04-24T15:32:24.696Z,3.13
2023-04-24T15:37:26.238Z,3.40
2023-04-24T15:42:27.765Z,2.80
2023-04-24T15:47:29.442Z,3.20
2023-04-24T15:52:31.616Z,2.80
2023-04-24T15:57:33.279Z,2.60
2023-04-24T16:02:34.846Z,4.30
2023-04-24T16:07:38.521Z,2.78
2023-04-24T16:12:40.024Z,2.83
2023-04-24T16:17:41.762Z,2.35
2023-04-24T16:22:43.287Z,2.40
2023-04-24T16:27:46.679Z,2.63
2023-04-24T16:32:48.274Z,2.50
2023-04-24T16:37:49.857Z,2.20
2023-04-24T16:42:52.770Z,2.53
2023-04-24T16:47:54.343Z,2.40
2023-04-24T16:52:55.906Z,2.53
2023-04-24T16:57:57.452Z,2.10
2023-04-24T17:02:59.032Z,2.08
2023-04-24T17:08:00.964Z,2.90
2023-04-24T17:13:02.487Z,3.80
2023-04-24T17:18:05.627Z,3.22
2023-04-24T17:23:07.292Z,3.58
2023-04-24T17:28:26.902Z,2.70
2023-04-24T17:33:30.514Z,2.83
2023-04-24T17:38:32.357Z,2.75
2023-04-24T17:43:33.940Z,3.13
2023-04-24T17:48:35.637Z,3.13
2023-04-24T17:53:37.493Z,2.90
2023-04-24T17:58:39.165Z,3.22
2023-04-24T18:03:40.890Z,2.90
2023-04-24T18:08:42.844Z,3.75
2023-04-24T18:13:46.133Z,2.70
2023-04-24T18:18:48.006Z,2.45
2023-04-24T18:23:49.743Z,4.90
2023-04-24T18:28:51.336Z,7.50
2023-04-24T18:33:54.293Z,3.75
2023-04-24T18:38:55.857Z,4.22
2023-04-24T18:43:59.160Z,5.40
2023-04-24T18:49:00.683Z,4.75
2023-04-24T18:54:02.232Z,4.65
2023-04-24T18:59:03.825Z,6.68
2023-04-24T19:04:05.481Z,5.05
2023-04-24T19:09:07.177Z,4.38
2023-04-24T19:14:08.700Z,5.18
2023-04-24T19:19:10.458Z,4.70
2023-04-24T19:24:12.199Z,4.05
2023-04-24T19:29:13.696Z,4.60
2023-04-24T19:34:15.168Z,5.70
2023-04-24T19:39:16.739Z,5.85
2023-04-24T19:44:18.640Z,4.63
2023-04-24T19:49:20.179Z,4.43
2023-04-24T19:54:21.789Z,4.63
2023-04-24T19:59:23.269Z,4.57
2023-04-24T20:04:24.899Z,3.60
2023-04-24T20:09:26.789Z,5.40
2023-04-24T20:14:28.337Z,4.55
2023-04-24T20:19:30.180Z,4.15
2023-04-24T20:24:31.799Z,3.22
2023-04-24T20:29:33.432Z,3.85
2023-04-24T20:34:34.925Z,5.22
2023-04-24T20:39:37.215Z,4.95
2023-04-24T20:44:38.766Z,4.80
2023-04-24T20:49:40.453Z,5.82
2023-04-24T20:54:42.035Z,6.65
2023-04-24T20:59:43.567Z,5.80
2023-04-24T21:04:45.060Z,4.40
2023-04-24T21:09:46.559Z,5.40
2023-04-24T21:14:51.050Z,4.30
2023-04-24T21:19:52.977Z,4.97
2023-04-24T21:24:54.590Z,4.57
2023-04-24T21:29:56.278Z,4.22
2023-04-24T21:34:59.385Z,4.10
2023-04-24T21:40:00.928Z,3.33
2023-04-24T21:45:02.616Z,3.35
2023-04-24T21:50:05.549Z,3.75
2023-04-24T21:55:07.403Z,4.25
2023-04-24T22:00:11.381Z,3.90
2023-04-24T22:05:15.870Z,4.55
2023-04-24T22:10:17.663Z,3.75
2023-04-24T22:15:19.292Z,4.55
2023-04-24T22:20:21.459Z,4.50
2023-04-24T22:25:22.951Z,5.13
2023-04-24T22:30:24.432Z,4.93
2023-04-24T22:35:25.947Z,4.78
2023-04-24T22:40:27.523Z,6.00
2023-04-24T22:45:29.073Z,4.45
2023-04-24T22:50:30.999Z,5.57
2023-04-24T22:55:32.579Z,4.50
2023-04-24T23:00:34.171Z,4.05
2023-04-24T23:05:36.023Z,4.60
2023-04-24T23:10:38.186Z,4.22
2023-04-24T23:15:39.738Z,3.92
2023-04-24T23:20:41.598Z,4.38
2023-04-24T23:25:43.095Z,4.28
2023-04-24T23:30:44.697Z,3.42
2023-04-24T23:35:46.355Z,3.92
2023-04-24T23:40:47.886Z,3.50
2023-04-24T23:45:49.484Z,4.18
2023-04-24T23:50:51.064Z,4.05
2023-04-24T23:55:52.616Z,3.65
